sensor_id;sensor_type;location;lat;lon;timestamp;P1;durP1;ratioP1;P2;durP2;ratioP2
62574;SDS011;53112;45.602;11.904;2022-12-11T00:00:17;14.90;;;10.35;;
62574;SDS011;53112;45.602;11.904;2022-12-11T00:02:43;15.07;;;10.27;;
62574;SDS011;53112;45.602;11.904;2022-12-11T00:05:10;13.98;;;10.02;;
62574;SDS011;53112;45.602;11.904;2022-12-11T00:07:36;13.40;;;9.75;;
62574;SDS011;53112;45.602;11.904;2022-12-11T00:10:02;14.23;;;9.57;;
62574;SDS011;53112;45.602;11.904;2022-12-11T00:12:29;18.83;;;11.95;;
62574;SDS011;53112;45.602;11.904;2022-12-11T00:14:55;16.55;;;11.38;;
62574;SDS011;53112;45.602;11.904;2022-12-11T00:17:22;14.23;;;10.27;;
62574;SDS011;53112;45.602;11.904;2022-12-11T00:19:48;14.43;;;9.73;;
62574;SDS011;53112;45.602;11.904;2022-12-11T00:22:13;14.07;;;9.88;;
62574;SDS011;53112;45.602;11.904;2022-12-11T00:24:39;16.30;;;11.18;;
62574;SDS011;53112;45.602;11.904;2022-12-11T00:27:05;15.50;;;11.20;;
62574;SDS011;53112;45.602;11.904;2022-12-11T00:29:32;14.18;;;10.32;;
62574;SDS011;53112;45.602;11.904;2022-12-11T00:31:58;15.88;;;10.30;;
62574;SDS011;53112;45.602;11.904;2022-12-11T00:34:24;13.73;;;9.75;;
62574;SDS011;53112;45.602;11.904;2022-12-11T00:36:50;13.70;;;9.38;;
62574;SDS011;53112;45.602;11.904;2022-12-11T00:39:16;13.45;;;9.75;;
62574;SDS011;53112;45.602;11.904;2022-12-11T00:41:41;12.73;;;9.32;;
62574;SDS011;53112;45.602;11.904;2022-12-11T00:44:07;12.80;;;8.68;;
62574;SDS011;53112;45.602;11.904;2022-12-11T00:46:33;13.60;;;9.20;;
62574;SDS011;53112;45.602;11.904;2022-12-11T00:48:59;11.55;;;8.32;;
62574;SDS011;53112;45.602;11.904;2022-12-11T00:51:25;12.88;;;8.90;;
62574;SDS011;53112;45.602;11.904;2022-12-11T00:53:50;10.50;;;7.75;;
62574;SDS011;53112;45.602;11.904;2022-12-11T00:56:18;11.43;;;7.45;;
62574;SDS011;53112;45.602;11.904;2022-12-11T00:58:45;10.05;;;6.85;;
62574;SDS011;53112;45.602;11.904;2022-12-11T01:01:13;9.32;;;7.03;;
62574;SDS011;53112;45.602;11.904;2022-12-11T01:03:41;9.48;;;7.00;;
62574;SDS011;53112;45.602;11.904;2022-12-11T01:06:07;10.73;;;6.80;;
62574;SDS011;53112;45.602;11.904;2022-12-11T01:08:39;10.05;;;6.78;;
62574;SDS011;53112;45.602;11.904;2022-12-11T01:11:06;9.43;;;6.72;;
62574;SDS011;53112;45.602;11.904;2022-12-11T01:13:33;8.98;;;6.57;;
62574;SDS011;53112;45.602;11.904;2022-12-11T01:16:04;9.52;;;6.70;;
62574;SDS011;53112;45.602;11.904;2022-12-11T01:18:32;7.15;;;5.43;;
62574;SDS011;53112;45.602;11.904;2022-12-11T01:20:58;7.80;;;5.43;;
62574;SDS011;53112;45.602;11.904;2022-12-11T01:23:24;10.82;;;6.82;;
62574;SDS011;53112;45.602;11.904;2022-12-11T01:25:50;9.35;;;6.18;;
62574;SDS011;53112;45.602;11.904;2022-12-11T01:28:16;8.38;;;5.85;;
62574;SDS011;53112;45.602;11.904;2022-12-11T01:30:42;8.57;;;6.05;;
62574;SDS011;53112;45.602;11.904;2022-12-11T01:33:08;8.95;;;6.65;;
62574;SDS011;53112;45.602;11.904;2022-12-11T01:35:34;8.80;;;6.53;;
62574;SDS011;53112;45.602;11.904;2022-12-11T01:38:00;9.07;;;6.18;;
62574;SDS011;53112;45.602;11.904;2022-12-11T01:40:27;9.25;;;6.15;;
62574;SDS011;53112;45.602;11.904;2022-12-11T01:42:53;10.55;;;7.10;;
62574;SDS011;53112;45.602;11.904;2022-12-11T01:48:04;9.85;;;7.15;;
62574;SDS011;53112;45.602;11.904;2022-12-11T01:50:32;8.50;;;6.30;;
62574;SDS011;53112;45.602;11.904;2022-12-11T01:53:02;9.10;;;6.57;;
62574;SDS011;53112;45.602;11.904;2022-12-11T01:55:32;9.65;;;6.20;;
62574;SDS011;53112;45.602;11.904;2022-12-11T01:57:58;7.90;;;6.00;;
62574;SDS011;53112;45.602;11.904;2022-12-11T02:00:26;8.48;;;6.15;;
62574;SDS011;53112;45.602;11.904;2022-12-11T02:02:52;7.80;;;5.68;;
62574;SDS011;53112;45.602;11.904;2022-12-11T02:05:18;7.22;;;5.40;;
62574;SDS011;53112;45.602;11.904;2022-12-11T02:07:45;9.57;;;5.85;;
62574;SDS011;53112;45.602;11.904;2022-12-11T02:10:15;7.63;;;5.55;;
62574;SDS011;53112;45.602;11.904;2022-12-11T02:12:44;8.88;;;5.22;;
62574;SDS011;53112;45.602;11.904;2022-12-11T02:15:30;8.25;;;5.05;;
62574;SDS011;53112;45.602;11.904;2022-12-11T02:20:57;6.22;;;4.50;;
62574;SDS011;53112;45.602;11.904;2022-12-11T02:28:59;7.82;;;5.53;;
62574;SDS011;53112;45.602;11.904;2022-12-11T02:31:40;8.35;;;6.10;;
62574;SDS011;53112;45.602;11.904;2022-12-11T02:34:17;10.02;;;6.30;;
62574;SDS011;53112;45.602;11.904;2022-12-11T02:36:46;8.55;;;5.85;;
62574;SDS011;53112;45.602;11.904;2022-12-11T02:39:16;9.00;;;6.18;;
62574;SDS011;53112;45.602;11.904;2022-12-11T02:41:45;8.48;;;5.90;;
62574;SDS011;53112;45.602;11.904;2022-12-11T02:44:14;7.28;;;5.28;;
62574;SDS011;53112;45.602;11.904;2022-12-11T02:46:44;7.88;;;5.47;;
62574;SDS011;53112;45.602;11.904;2022-12-11T02:49:10;7.65;;;5.25;;
62574;SDS011;53112;45.602;11.904;2022-12-11T02:51:39;7.40;;;5.30;;
62574;SDS011;53112;45.602;11.904;2022-12-11T02:54:11;6.75;;;4.68;;
62574;SDS011;53112;45.602;11.904;2022-12-11T02:56:43;6.50;;;4.78;;
62574;SDS011;53112;45.602;11.904;2022-12-11T02:59:19;7.10;;;4.82;;
62574;SDS011;53112;45.602;11.904;2022-12-11T03:01:50;7.45;;;5.47;;
62574;SDS011;53112;45.602;11.904;2022-12-11T03:04:16;7.90;;;5.78;;
62574;SDS011;53112;45.602;11.904;2022-12-11T03:06:44;7.88;;;6.00;;
62574;SDS011;53112;45.602;11.904;2022-12-11T03:11:40;7.82;;;5.35;;
62574;SDS011;53112;45.602;11.904;2022-12-11T03:14:06;7.03;;;5.18;;
62574;SDS011;53112;45.602;11.904;2022-12-11T03:16:36;7.85;;;5.60;;
62574;SDS011;53112;45.602;11.904;2022-12-11T03:25:05;8.05;;;5.82;;
62574;SDS011;53112;45.602;11.904;2022-12-11T03:27:33;8.80;;;5.70;;
62574;SDS011;53112;45.602;11.904;2022-12-11T03:30:09;8.32;;;5.90;;
62574;SDS011;53112;45.602;11.904;2022-12-11T03:32:40;8.20;;;6.30;;
62574;SDS011;53112;45.602;11.904;2022-12-11T03:37:53;10.23;;;6.22;;
62574;SDS011;53112;45.602;11.904;2022-12-11T03:40:22;8.77;;;6.28;;
62574;SDS011;53112;45.602;11.904;2022-12-11T03:42:51;10.45;;;6.93;;
62574;SDS011;53112;45.602;11.904;2022-12-11T03:45:18;9.18;;;6.85;;
62574;SDS011;53112;45.602;11.904;2022-12-11T03:47:46;8.98;;;6.53;;
62574;SDS011;53112;45.602;11.904;2022-12-11T03:50:15;8.63;;;6.40;;
62574;SDS011;53112;45.602;11.904;2022-12-11T03:52:43;10.25;;;6.45;;
62574;SDS011;53112;45.602;11.904;2022-12-11T03:55:11;8.55;;;6.10;;
62574;SDS011;53112;45.602;11.904;2022-12-11T03:57:39;8.35;;;6.25;;
62574;SDS011;53112;45.602;11.904;2022-12-11T04:00:12;9.07;;;5.93;;
62574;SDS011;53112;45.602;11.904;2022-12-11T04:02:42;9.25;;;6.15;;
62574;SDS011;53112;45.602;11.904;2022-12-11T04:05:09;9.25;;;6.03;;
62574;SDS011;53112;45.602;11.904;2022-12-11T04:07:36;9.52;;;5.82;;
62574;SDS011;53112;45.602;11.904;2022-12-11T04:10:03;9.32;;;6.38;;
62574;SDS011;53112;45.602;11.904;2022-12-11T04:12:29;9.90;;;6.53;;
62574;SDS011;53112;45.602;11.904;2022-12-11T04:14:55;8.00;;;5.90;;
62574;SDS011;53112;45.602;11.904;2022-12-11T04:17:27;8.77;;;6.00;;
62574;SDS011;53112;45.602;11.904;2022-12-11T04:20:16;8.55;;;5.70;;
62574;SDS011;53112;45.602;11.904;2022-12-11T04:23:11;7.70;;;5.32;;
62574;SDS011;53112;45.602;11.904;2022-12-11T04:26:19;6.75;;;4.90;;
62574;SDS011;53112;45.602;11.904;2022-12-11T04:28:45;6.60;;;4.47;;
62574;SDS011;53112;45.602;11.904;2022-12-11T04:31:13;5.65;;;3.35;;
62574;SDS011;53112;45.602;11.904;2022-12-11T04:33:44;3.97;;;2.90;;
62574;SDS011;53112;45.602;11.904;2022-12-11T04:36:10;3.65;;;2.40;;
62574;SDS011;53112;45.602;11.904;2022-12-11T04:38:37;2.67;;;2.20;;
62574;SDS011;53112;45.602;11.904;2022-12-11T04:41:05;2.63;;;1.88;;
62574;SDS011;53112;45.602;11.904;2022-12-11T04:43:35;3.95;;;2.35;;
62574;SDS011;53112;45.602;11.904;2022-12-11T04:46:12;2.42;;;1.90;;
62574;SDS011;53112;45.602;11.904;2022-12-11T04:48:39;2.33;;;2.10;;
62574;SDS011;53112;45.602;11.904;2022-12-11T04:51:06;2.90;;;1.90;;
62574;SDS011;53112;45.602;11.904;2022-12-11T04:53:33;2.42;;;1.90;;
62574;SDS011;53112;45.602;11.904;2022-12-11T04:55:59;2.42;;;1.92;;
62574;SDS011;53112;45.602;11.904;2022-12-11T04:58:25;2.42;;;1.90;;
62574;SDS011;53112;45.602;11.904;2022-12-11T05:00:52;1.70;;;1.60;;
62574;SDS011;53112;45.602;11.904;2022-12-11T05:03:18;1.70;;;1.60;;
62574;SDS011;53112;45.602;11.904;2022-12-11T05:05:51;1.60;;;1.50;;
62574;SDS011;53112;45.602;11.904;2022-12-11T05:08:18;1.67;;;1.58;;
62574;SDS011;53112;45.602;11.904;2022-12-11T05:10:55;1.60;;;1.50;;
62574;SDS011;53112;45.602;11.904;2022-12-11T05:13:22;1.50;;;1.40;;
62574;SDS011;53112;45.602;11.904;2022-12-11T05:15:48;1.88;;;1.50;;
62574;SDS011;53112;45.602;11.904;2022-12-11T05:18:14;1.58;;;1.40;;
62574;SDS011;53112;45.602;11.904;2022-12-11T05:20:40;1.60;;;1.50;;
62574;SDS011;53112;45.602;11.904;2022-12-11T05:23:06;1.60;;;1.50;;
62574;SDS011;53112;45.602;11.904;2022-12-11T05:25:32;1.77;;;1.58;;
62574;SDS011;53112;45.602;11.904;2022-12-11T05:27:58;1.90;;;1.70;;
62574;SDS011;53112;45.602;11.904;2022-12-11T05:30:24;1.50;;;1.40;;
62574;SDS011;53112;45.602;11.904;2022-12-11T05:32:50;1.90;;;1.52;;
62574;SDS011;53112;45.602;11.904;2022-12-11T05:35:16;1.58;;;1.40;;
62574;SDS011;53112;45.602;11.904;2022-12-11T05:37:42;1.77;;;1.50;;
62574;SDS011;53112;45.602;11.904;2022-12-11T05:40:08;1.90;;;1.40;;
62574;SDS011;53112;45.602;11.904;2022-12-11T05:42:37;1.80;;;1.50;;
62574;SDS011;53112;45.602;11.904;2022-12-11T05:45:03;1.50;;;1.40;;
62574;SDS011;53112;45.602;11.904;2022-12-11T05:47:29;1.58;;;1.40;;
62574;SDS011;53112;45.602;11.904;2022-12-11T05:49:56;1.50;;;1.40;;
62574;SDS011;53112;45.602;11.904;2022-12-11T05:52:22;1.52;;;1.40;;
62574;SDS011;53112;45.602;11.904;2022-12-11T05:54:48;1.83;;;1.48;;
62574;SDS011;53112;45.602;11.904;2022-12-11T05:57:14;1.50;;;1.40;;
62574;SDS011;53112;45.602;11.904;2022-12-11T05:59:41;1.50;;;1.40;;
62574;SDS011;53112;45.602;11.904;2022-12-11T06:02:07;1.33;;;1.23;;
62574;SDS011;53112;45.602;11.904;2022-12-11T06:04:32;1.40;;;1.30;;
62574;SDS011;53112;45.602;11.904;2022-12-11T06:06:58;1.50;;;1.40;;
62574;SDS011;53112;45.602;11.904;2022-12-11T06:09:24;1.30;;;1.25;;
62574;SDS011;53112;45.602;11.904;2022-12-11T06:11:50;1.92;;;1.60;;
62574;SDS011;53112;45.602;11.904;2022-12-11T06:14:16;1.50;;;1.40;;
62574;SDS011;53112;45.602;11.904;2022-12-11T06:16:42;1.60;;;1.50;;
62574;SDS011;53112;45.602;11.904;2022-12-11T06:19:12;1.30;;;1.30;;
62574;SDS011;53112;45.602;11.904;2022-12-11T06:21:39;1.37;;;1.30;;
62574;SDS011;53112;45.602;11.904;2022-12-11T06:24:06;1.63;;;1.40;;
62574;SDS011;53112;45.602;11.904;2022-12-11T06:26:34;1.60;;;1.50;;
62574;SDS011;53112;45.602;11.904;2022-12-11T06:29:00;1.75;;;1.65;;
62574;SDS011;53112;45.602;11.904;2022-12-11T06:31:26;1.60;;;1.50;;
62574;SDS011;53112;45.602;11.904;2022-12-11T06:33:52;1.60;;;1.50;;
62574;SDS011;53112;45.602;11.904;2022-12-11T06:36:19;1.52;;;1.42;;
62574;SDS011;53112;45.602;11.904;2022-12-11T06:38:47;1.60;;;1.50;;
62574;SDS011;53112;45.602;11.904;2022-12-11T06:41:13;2.20;;;1.63;;
62574;SDS011;53112;45.602;11.904;2022-12-11T06:43:39;2.10;;;1.90;;
62574;SDS011;53112;45.602;11.904;2022-12-11T06:46:08;2.60;;;1.63;;
62574;SDS011;53112;45.602;11.904;2022-12-11T06:51:10;2.15;;;1.70;;
62574;SDS011;53112;45.602;11.904;2022-12-11T06:53:38;2.80;;;1.92;;
62574;SDS011;53112;45.602;11.904;2022-12-11T06:56:05;2.25;;;1.70;;
62574;SDS011;53112;45.602;11.904;2022-12-11T06:58:33;2.05;;;1.83;;
62574;SDS011;53112;45.602;11.904;2022-12-11T07:01:00;2.88;;;1.90;;
62574;SDS011;53112;45.602;11.904;2022-12-11T07:03:27;2.72;;;2.38;;
62574;SDS011;53112;45.602;11.904;2022-12-11T07:05:58;2.38;;;1.90;;
62574;SDS011;53112;45.602;11.904;2022-12-11T07:08:26;2.85;;;1.80;;
62574;SDS011;53112;45.602;11.904;2022-12-11T07:10:53;2.50;;;1.88;;
62574;SDS011;53112;45.602;11.904;2022-12-11T07:13:19;2.17;;;1.90;;
62574;SDS011;53112;45.602;11.904;2022-12-11T07:15:45;2.00;;;1.80;;
62574;SDS011;53112;45.602;11.904;2022-12-11T07:18:11;2.47;;;1.90;;
62574;SDS011;53112;45.602;11.904;2022-12-11T07:20:37;2.15;;;1.80;;
62574;SDS011;53112;45.602;11.904;2022-12-11T07:23:03;1.65;;;1.55;;
62574;SDS011;53112;45.602;11.904;2022-12-11T07:25:29;2.20;;;1.73;;
62574;SDS011;53112;45.602;11.904;2022-12-11T07:27:55;2.42;;;1.85;;
62574;SDS011;53112;45.602;11.904;2022-12-11T07:30:21;1.92;;;1.70;;
62574;SDS011;53112;45.602;11.904;2022-12-11T07:32:48;1.88;;;1.75;;
62574;SDS011;53112;45.602;11.904;2022-12-11T07:35:13;2.80;;;1.92;;
62574;SDS011;53112;45.602;11.904;2022-12-11T07:37:40;4.55;;;2.55;;
62574;SDS011;53112;45.602;11.904;2022-12-11T07:40:06;2.20;;;2.00;;
62574;SDS011;53112;45.602;11.904;2022-12-11T07:42:34;2.15;;;1.70;;
62574;SDS011;53112;45.602;11.904;2022-12-11T07:45:00;1.95;;;1.75;;
62574;SDS011;53112;45.602;11.904;2022-12-11T07:47:26;3.25;;;2.30;;
62574;SDS011;53112;45.602;11.904;2022-12-11T07:49:51;2.13;;;1.92;;
62574;SDS011;53112;45.602;11.904;2022-12-11T07:52:17;2.90;;;2.15;;
62574;SDS011;53112;45.602;11.904;2022-12-11T07:54:43;2.20;;;2.00;;
62574;SDS011;53112;45.602;11.904;2022-12-11T07:57:09;2.13;;;1.88;;
62574;SDS011;53112;45.602;11.904;2022-12-11T07:59:35;3.38;;;2.20;;
62574;SDS011;53112;45.602;11.904;2022-12-11T08:02:01;2.08;;;1.90;;
62574;SDS011;53112;45.602;11.904;2022-12-11T08:04:29;2.28;;;1.90;;
62574;SDS011;53112;45.602;11.904;2022-12-11T08:06:54;2.40;;;2.10;;
62574;SDS011;53112;45.602;11.904;2022-12-11T08:09:23;2.92;;;1.88;;
62574;SDS011;53112;45.602;11.904;2022-12-11T08:11:49;2.55;;;2.00;;
62574;SDS011;53112;45.602;11.904;2022-12-11T08:14:16;2.55;;;2.10;;
62574;SDS011;53112;45.602;11.904;2022-12-11T08:16:42;2.95;;;2.10;;
62574;SDS011;53112;45.602;11.904;2022-12-11T08:19:12;3.03;;;2.10;;
62574;SDS011;53112;45.602;11.904;2022-12-11T08:21:38;2.90;;;2.13;;
62574;SDS011;53112;45.602;11.904;2022-12-11T08:24:04;3.33;;;2.50;;
62574;SDS011;53112;45.602;11.904;2022-12-11T08:26:31;2.13;;;1.92;;
62574;SDS011;53112;45.602;11.904;2022-12-11T08:28:57;2.15;;;1.90;;
62574;SDS011;53112;45.602;11.904;2022-12-11T08:31:24;1.92;;;1.80;;
62574;SDS011;53112;45.602;11.904;2022-12-11T08:33:51;2.50;;;2.08;;
62574;SDS011;53112;45.602;11.904;2022-12-11T08:36:19;2.15;;;1.80;;
62574;SDS011;53112;45.602;11.904;2022-12-11T08:38:47;2.45;;;2.10;;
62574;SDS011;53112;45.602;11.904;2022-12-11T08:41:15;3.25;;;2.33;;
62574;SDS011;53112;45.602;11.904;2022-12-11T08:43:43;3.22;;;2.60;;
62574;SDS011;53112;45.602;11.904;2022-12-11T08:46:09;3.05;;;2.13;;
62574;SDS011;53112;45.602;11.904;2022-12-11T08:48:37;2.97;;;2.17;;
62574;SDS011;53112;45.602;11.904;2022-12-11T08:51:06;3.33;;;2.25;;
62574;SDS011;53112;45.602;11.904;2022-12-11T08:53:34;3.70;;;2.13;;
62574;SDS011;53112;45.602;11.904;2022-12-11T08:56:01;4.45;;;2.50;;
62574;SDS011;53112;45.602;11.904;2022-12-11T08:58:32;2.80;;;2.30;;
62574;SDS011;53112;45.602;11.904;2022-12-11T09:00:58;3.20;;;2.30;;
62574;SDS011;53112;45.602;11.904;2022-12-11T09:03:24;2.53;;;2.30;;
62574;SDS011;53112;45.602;11.904;2022-12-11T09:05:50;5.07;;;3.05;;
62574;SDS011;53112;45.602;11.904;2022-12-11T09:08:16;3.42;;;2.40;;
62574;SDS011;53112;45.602;11.904;2022-12-11T09:10:42;3.80;;;2.80;;
62574;SDS011;53112;45.602;11.904;2022-12-11T09:13:08;4.32;;;3.30;;
62574;SDS011;53112;45.602;11.904;2022-12-11T09:15:34;4.63;;;3.00;;
62574;SDS011;53112;45.602;11.904;2022-12-11T09:18:04;3.38;;;2.50;;
62574;SDS011;53112;45.602;11.904;2022-12-11T09:20:30;4.15;;;2.83;;
62574;SDS011;53112;45.602;11.904;2022-12-11T09:22:56;4.25;;;2.78;;
62574;SDS011;53112;45.602;11.904;2022-12-11T09:25:22;7.70;;;4.95;;
62574;SDS011;53112;45.602;11.904;2022-12-11T09:27:48;6.43;;;4.40;;
62574;SDS011;53112;45.602;11.904;2022-12-11T09:30:14;10.35;;;7.50;;
62574;SDS011;53112;45.602;11.904;2022-12-11T09:32:40;7.57;;;4.88;;
62574;SDS011;53112;45.602;11.904;2022-12-11T09:35:06;6.60;;;4.30;;
62574;SDS011;53112;45.602;11.904;2022-12-11T09:37:33;4.95;;;3.35;;
62574;SDS011;53112;45.602;11.904;2022-12-11T09:39:59;5.28;;;3.60;;
62574;SDS011;53112;45.602;11.904;2022-12-11T09:42:38;5.60;;;4.10;;
62574;SDS011;53112;45.602;11.904;2022-12-11T09:45:13;7.30;;;5.65;;
62574;SDS011;53112;45.602;11.904;2022-12-11T09:47:44;6.35;;;4.43;;
62574;SDS011;53112;45.602;11.904;2022-12-11T09:50:16;9.05;;;6.45;;
62574;SDS011;53112;45.602;11.904;2022-12-11T10:01:28;7.00;;;5.00;;
62574;SDS011;53112;45.602;11.904;2022-12-11T10:04:14;6.75;;;4.70;;
62574;SDS011;53112;45.602;11.904;2022-12-11T10:09:58;2.95;;;2.42;;
62574;SDS011;53112;45.602;11.904;2022-12-11T10:18:18;3.08;;;2.20;;
62574;SDS011;53112;45.602;11.904;2022-12-11T10:20:48;3.35;;;2.35;;
62574;SDS011;53112;45.602;11.904;2022-12-11T10:23:17;3.42;;;2.58;;
62574;SDS011;53112;45.602;11.904;2022-12-11T10:25:57;3.55;;;2.72;;
62574;SDS011;53112;45.602;11.904;2022-12-11T10:28:43;3.38;;;2.60;;
62574;SDS011;53112;45.602;11.904;2022-12-11T10:31:19;4.00;;;2.83;;
62574;SDS011;53112;45.602;11.904;2022-12-11T10:36:30;3.70;;;2.60;;
62574;SDS011;53112;45.602;11.904;2022-12-11T10:38:58;3.55;;;2.67;;
62574;SDS011;53112;45.602;11.904;2022-12-11T10:41:38;2.42;;;2.00;;
62574;SDS011;53112;45.602;11.904;2022-12-11T10:46:44;2.38;;;1.92;;
62574;SDS011;53112;45.602;11.904;2022-12-11T10:49:24;2.92;;;2.30;;
62574;SDS011;53112;45.602;11.904;2022-12-11T10:51:54;3.92;;;2.60;;
62574;SDS011;53112;45.602;11.904;2022-12-11T10:54:37;3.25;;;2.35;;
62574;SDS011;53112;45.602;11.904;2022-12-11T10:57:08;3.03;;;2.20;;
62574;SDS011;53112;45.602;11.904;2022-12-11T10:59:37;2.65;;;2.30;;
62574;SDS011;53112;45.602;11.904;2022-12-11T11:02:30;2.78;;;2.30;;
62574;SDS011;53112;45.602;11.904;2022-12-11T11:04:58;3.75;;;2.50;;
62574;SDS011;53112;45.602;11.904;2022-12-11T11:15:05;6.03;;;3.05;;
62574;SDS011;53112;45.602;11.904;2022-12-11T11:17:41;3.90;;;2.50;;
62574;SDS011;53112;45.602;11.904;2022-12-11T11:20:19;2.97;;;2.20;;
62574;SDS011;53112;45.602;11.904;2022-12-11T11:22:59;2.75;;;2.28;;
62574;SDS011;53112;45.602;11.904;2022-12-11T11:25:28;4.05;;;2.60;;
62574;SDS011;53112;45.602;11.904;2022-12-11T11:27:58;4.32;;;2.60;;
62574;SDS011;53112;45.602;11.904;2022-12-11T11:33:04;3.38;;;2.40;;
62574;SDS011;53112;45.602;11.904;2022-12-11T11:35:37;4.15;;;2.60;;
62574;SDS011;53112;45.602;11.904;2022-12-11T11:38:16;4.70;;;2.33;;
62574;SDS011;53112;45.602;11.904;2022-12-11T11:45:57;3.38;;;2.35;;
62574;SDS011;53112;45.602;11.904;2022-12-11T11:51:13;2.88;;;2.17;;
62574;SDS011;53112;45.602;11.904;2022-12-11T11:53:47;3.75;;;2.50;;
62574;SDS011;53112;45.602;11.904;2022-12-11T11:56:20;3.33;;;2.10;;
62574;SDS011;53112;45.602;11.904;2022-12-11T12:01:46;3.42;;;2.25;;
62574;SDS011;53112;45.602;11.904;2022-12-11T12:04:12;3.00;;;2.33;;
62574;SDS011;53112;45.602;11.904;2022-12-11T12:09:26;4.82;;;2.97;;
62574;SDS011;53112;45.602;11.904;2022-12-11T12:12:09;4.18;;;2.70;;
62574;SDS011;53112;45.602;11.904;2022-12-11T12:23:04;3.38;;;2.40;;
62574;SDS011;53112;45.602;11.904;2022-12-11T12:26:16;4.82;;;2.70;;
62574;SDS011;53112;45.602;11.904;2022-12-11T12:40:29;3.40;;;2.47;;
62574;SDS011;53112;45.602;11.904;2022-12-11T12:45:33;5.53;;;2.95;;
62574;SDS011;53112;45.602;11.904;2022-12-11T12:48:06;5.38;;;2.80;;
62574;SDS011;53112;45.602;11.904;2022-12-11T12:50:36;5.88;;;2.80;;
62574;SDS011;53112;45.602;11.904;2022-12-11T12:53:05;4.78;;;2.83;;
62574;SDS011;53112;45.602;11.904;2022-12-11T12:55:37;4.00;;;2.78;;
62574;SDS011;53112;45.602;11.904;2022-12-11T12:58:04;5.78;;;2.78;;
62574;SDS011;53112;45.602;11.904;2022-12-11T13:00:48;3.75;;;2.70;;
62574;SDS011;53112;45.602;11.904;2022-12-11T13:03:18;4.22;;;2.88;;
62574;SDS011;53112;45.602;11.904;2022-12-11T13:11:15;4.63;;;2.92;;
62574;SDS011;53112;45.602;11.904;2022-12-11T13:13:47;3.97;;;2.70;;
62574;SDS011;53112;45.602;11.904;2022-12-11T13:16:48;3.80;;;2.67;;
62574;SDS011;53112;45.602;11.904;2022-12-11T13:21:55;5.53;;;3.50;;
62574;SDS011;53112;45.602;11.904;2022-12-11T13:24:28;4.75;;;3.03;;
62574;SDS011;53112;45.602;11.904;2022-12-11T13:26:55;5.50;;;3.15;;
62574;SDS011;53112;45.602;11.904;2022-12-11T13:29:33;4.38;;;2.83;;
62574;SDS011;53112;45.602;11.904;2022-12-11T13:34:36;4.53;;;2.97;;
62574;SDS011;53112;45.602;11.904;2022-12-11T13:37:04;7.78;;;3.22;;
62574;SDS011;53112;45.602;11.904;2022-12-11T13:39:35;5.25;;;3.25;;
62574;SDS011;53112;45.602;11.904;2022-12-11T13:42:07;5.65;;;3.60;;
62574;SDS011;53112;45.602;11.904;2022-12-11T13:44:48;6.28;;;3.72;;
62574;SDS011;53112;45.602;11.904;2022-12-11T13:47:14;6.90;;;4.00;;
62574;SDS011;53112;45.602;11.904;2022-12-11T13:49:44;7.43;;;3.70;;
62574;SDS011;53112;45.602;11.904;2022-12-11T13:52:16;7.40;;;4.68;;
62574;SDS011;53112;45.602;11.904;2022-12-11T13:54:48;9.68;;;5.93;;
62574;SDS011;53112;45.602;11.904;2022-12-11T13:57:18;8.13;;;5.35;;
62574;SDS011;53112;45.602;11.904;2022-12-11T13:59:48;8.68;;;5.53;;
62574;SDS011;53112;45.602;11.904;2022-12-11T14:02:21;8.35;;;5.20;;
62574;SDS011;53112;45.602;11.904;2022-12-11T14:05:09;14.60;;;8.23;;
62574;SDS011;53112;45.602;11.904;2022-12-11T14:07:40;10.15;;;6.57;;
62574;SDS011;53112;45.602;11.904;2022-12-11T14:10:21;6.75;;;4.13;;
62574;SDS011;53112;45.602;11.904;2022-12-11T14:12:52;10.88;;;7.10;;
62574;SDS011;53112;45.602;11.904;2022-12-11T14:15:21;7.65;;;4.90;;
62574;SDS011;53112;45.602;11.904;2022-12-11T14:17:48;6.75;;;4.43;;
62574;SDS011;53112;45.602;11.904;2022-12-11T14:20:21;17.00;;;11.93;;
62574;SDS011;53112;45.602;11.904;2022-12-11T14:23:37;21.15;;;13.50;;
62574;SDS011;53112;45.602;11.904;2022-12-11T14:25:38;11.85;;;7.68;;
62574;SDS011;53112;45.602;11.904;2022-12-11T14:28:04;9.38;;;5.90;;
62574;SDS011;53112;45.602;11.904;2022-12-11T14:30:44;8.93;;;5.32;;
62574;SDS011;53112;45.602;11.904;2022-12-11T14:33:13;7.68;;;4.55;;
62574;SDS011;53112;45.602;11.904;2022-12-11T14:35:41;6.78;;;4.43;;
62574;SDS011;53112;45.602;11.904;2022-12-11T14:38:19;6.95;;;4.60;;
62574;SDS011;53112;45.602;11.904;2022-12-11T14:40:57;6.18;;;4.30;;
62574;SDS011;53112;45.602;11.904;2022-12-11T14:43:32;6.72;;;4.60;;
62574;SDS011;53112;45.602;11.904;2022-12-11T14:46:07;19.30;;;12.23;;
62574;SDS011;53112;45.602;11.904;2022-12-11T14:48:42;20.48;;;13.32;;
62574;SDS011;53112;45.602;11.904;2022-12-11T14:51:13;16.65;;;10.07;;
62574;SDS011;53112;45.602;11.904;2022-12-11T14:53:45;10.88;;;6.80;;
62574;SDS011;53112;45.602;11.904;2022-12-11T14:56:18;9.70;;;5.88;;
62574;SDS011;53112;45.602;11.904;2022-12-11T14:58:57;8.38;;;5.13;;
62574;SDS011;53112;45.602;11.904;2022-12-11T15:01:27;7.93;;;4.80;;
62574;SDS011;53112;45.602;11.904;2022-12-11T15:04:02;7.53;;;4.93;;
62574;SDS011;53112;45.602;11.904;2022-12-11T15:06:29;9.00;;;5.15;;
62574;SDS011;53112;45.602;11.904;2022-12-11T15:09:07;8.70;;;5.28;;
62574;SDS011;53112;45.602;11.904;2022-12-11T15:11:54;8.18;;;5.10;;
62574;SDS011;53112;45.602;11.904;2022-12-11T15:14:24;8.45;;;5.38;;
62574;SDS011;53112;45.602;11.904;2022-12-11T15:16:51;8.38;;;4.68;;
62574;SDS011;53112;45.602;11.904;2022-12-11T15:19:30;7.90;;;4.85;;
62574;SDS011;53112;45.602;11.904;2022-12-11T15:22:02;10.80;;;6.78;;
62574;SDS011;53112;45.602;11.904;2022-12-11T15:24:35;11.45;;;6.93;;
62574;SDS011;53112;45.602;11.904;2022-12-11T15:27:12;10.85;;;6.00;;
62574;SDS011;53112;45.602;11.904;2022-12-11T15:32:46;8.82;;;5.22;;
62574;SDS011;53112;45.602;11.904;2022-12-11T15:35:19;11.45;;;5.78;;
62574;SDS011;53112;45.602;11.904;2022-12-11T15:37:53;16.55;;;7.88;;
62574;SDS011;53112;45.602;11.904;2022-12-11T15:40:21;14.32;;;7.70;;
62574;SDS011;53112;45.602;11.904;2022-12-11T15:42:47;10.30;;;6.35;;
62574;SDS011;53112;45.602;11.904;2022-12-11T15:45:14;9.45;;;5.55;;
62574;SDS011;53112;45.602;11.904;2022-12-11T15:47:42;9.32;;;5.80;;
62574;SDS011;53112;45.602;11.904;2022-12-11T15:50:19;7.47;;;4.57;;
62574;SDS011;53112;45.602;11.904;2022-12-11T15:52:47;7.97;;;4.88;;
62574;SDS011;53112;45.602;11.904;2022-12-11T15:55:14;7.50;;;4.75;;
62574;SDS011;53112;45.602;11.904;2022-12-11T15:57:44;9.60;;;6.15;;
62574;SDS011;53112;45.602;11.904;2022-12-11T16:00:14;6.90;;;4.32;;
62574;SDS011;53112;45.602;11.904;2022-12-11T16:02:42;7.45;;;4.40;;
62574;SDS011;53112;45.602;11.904;2022-12-11T16:05:08;8.70;;;5.72;;
62574;SDS011;53112;45.602;11.904;2022-12-11T16:07:34;9.48;;;6.25;;
62574;SDS011;53112;45.602;11.904;2022-12-11T16:10:02;8.45;;;5.68;;
62574;SDS011;53112;45.602;11.904;2022-12-11T16:12:29;8.43;;;5.50;;
62574;SDS011;53112;45.602;11.904;2022-12-11T16:14:54;8.30;;;4.95;;
62574;SDS011;53112;45.602;11.904;2022-12-11T16:17:20;7.88;;;5.30;;
62574;SDS011;53112;45.602;11.904;2022-12-11T16:19:46;8.40;;;5.47;;
62574;SDS011;53112;45.602;11.904;2022-12-11T16:22:12;9.52;;;5.05;;
62574;SDS011;53112;45.602;11.904;2022-12-11T16:24:38;7.90;;;4.80;;
62574;SDS011;53112;45.602;11.904;2022-12-11T16:27:05;8.93;;;5.28;;
62574;SDS011;53112;45.602;11.904;2022-12-11T16:29:33;8.05;;;4.95;;
62574;SDS011;53112;45.602;11.904;2022-12-11T16:32:00;7.03;;;4.55;;